Language selection

My Weather Profile Weather Topics  | 

West Coast Vancouver Island South: Past 24 Hour Conditions

 

Sentry Shoal - 46131

03:00 AM PDT 17 October 2021Buoy position: 49.92N 125.0W
Disclaimer

This table is a summary of hourly weather conditions for the past 24 hours.
Please note that these observations might not always be representative of weather conditions over their associated marine area.

Date / Time
(PDT)
Wind(knots) Wave height(m) Wave period(s) Pressure(kPa) Air tempC) Water tempC)
17 October 2021
3:00 ESE 12 gust 13 N/A 3.0 100.5 10 N/A
2:00 SE 8 gust 10 0.2 3.0 100.6 11 N/A
1:00 ESE 6 gust 8 0.2 3.0 100.7 11 N/A
0:00 ESE 8 gust 10 0.2 3.0 100.7 11 N/A
16 October 2021
23:00 SSE 8 gust 10 0.3 3.0 100.8 11 N/A
22:00 SSE 12 gust 16 0.3 2.0 100.8 11 N/A
21:00 SSE 12 gust 13 0.3 3.0 100.8 11 N/A
20:00 SSE 12 gust 13 0.4 3.0 100.8 11 N/A
19:00 ESE 13 gust 17 0.5 3.0 100.8 12 N/A
18:00 SE 12 gust 17 0.4 3.0 100.8 12 N/A
17:00 S 10 gust 12 0.5 3.0 100.8 11 N/A
16:00 SE 13 gust 16 0.5 3.0 100.7 11 N/A
15:00 SE 16 gust 17 0.8 4.0 100.8 11 N/A
14:00 SE 17 gust 23 0.7 4.0 100.8 11 N/A
13:00 S 16 gust 17 0.8 4.0 101.0 11 N/A
12:00 SE 19 gust 23 1.0 5.0 101.0 11 N/A
11:00 SE 13 gust 19 1.3 4.0 101.0 12 N/A
10:00 SE 22 gust 27 1.2 5.0 101.0 12 N/A
9:00 N/A N/A N/A N/A N/A N/A
8:00 SE 23 gust 27 1.3 5.0 101.0 12 N/A
7:00 SE 23 gust 31 1.5 5.0 101.0 12 N/A
6:00 SE 22 gust 27 1.6 5.0 101.0 11 N/A
5:00 SE 23 gust 29 1.9 5.0 101.0 12 N/A
4:00 SE 25 1.8 5.0 101.0 12 N/A
3:00 SE 27 gust 33 1.9 5.0 101.0 12 N/A

Zoom-in to make a selection

Map of Pacific - Georgia Basin marine weather areas Sentry Shoal - 46131 Halibut Bank - 46146 La Perouse Bank - 46206 Georgia Strait - 46303 English Bay - 46304 Discovery Island Esquimalt Harbour Kelp Reefs Malahat Race Rocks Lightstation Saturna Island Sheringham Point University of Victoria Victoria Gonzales Victoria Int'l Airport Ballenas Islands Campbell River Airport Comox Airport Entrance Island Fanny Island Nanaimo Airport Sisters Islets Estevan Point Port Alberni Tofino Airport Grief Point Howe Sound - Pam Rocks Powell River Airport Sechelt Squamish Airport Point Atkinson Sand Heads Lightstation Tsawwassen Ferry Terminal Vancouver Int'l Airport Vancouver Harbour West Vancouver
Legend:
buoy Buoy
land station Land Station

Pacific - Georgia Basin Area

Another Region

What we are doing

Date modified: